Kampville Court, Missouri
Current Conditions -  °F | °C
As of 6:54 PM on Tuesday 21 Oct 2014 (Local Time) from KSET Reporting Station
Clear Clear  
Wind Chill: 57°   Ceiling: Unl
Heat Index: 57°   Visibility: 10mi
Dew Point: 42°   Wind: 7mph
Humidity: 57%   Direction: 50°NE
Pressure: 30.14"   Gusts: NA
Location:  38.8615°N, 90.4548°W
Report Text: KSET 212354Z AUTO 05006KT 10SM CLR 14/06 A3014 RMK AO2 SLP206 T01390056 10194 20139 53011 $
Loading
Personal Weather Stations






























Interactive Weather Map
Tropical Storm Tracking
New forecast layout! Learn more

10-Day Weather Forecast

Advertisements
Track Severe Weather on mobile